createdAt,value
2023-02-15T00:00:11.309Z,79.96
2023-02-15T00:02:38.612Z,80.07
2023-02-15T00:05:06.033Z,79.91
2023-02-15T00:07:33.447Z,80.01
2023-02-15T00:10:00.363Z,80.15
2023-02-15T00:12:27.291Z,80.08
2023-02-15T00:14:54.181Z,79.90
2023-02-15T00:17:22.451Z,79.96
2023-02-15T00:19:49.376Z,80.12
2023-02-15T00:22:16.354Z,80.01
2023-02-15T00:24:43.274Z,80.14
2023-02-15T00:27:10.337Z,79.96
2023-02-15T00:29:37.350Z,79.97
2023-02-15T00:32:04.464Z,80.16
2023-02-15T00:34:31.429Z,80.23
2023-02-15T00:36:58.390Z,80.22
2023-02-15T00:39:25.343Z,80.04
2023-02-15T00:41:52.293Z,80.42
2023-02-15T00:44:19.289Z,80.07
2023-02-15T00:46:46.301Z,80.18
2023-02-15T00:49:13.264Z,80.11
2023-02-15T00:51:40.479Z,79.98
2023-02-15T00:54:07.921Z,80.17
2023-02-15T00:56:34.871Z,80.11
2023-02-15T00:59:01.954Z,80.04
2023-02-15T01:01:28.900Z,80.27
2023-02-15T01:03:55.964Z,80.15
2023-02-15T01:06:22.953Z,80.11
2023-02-15T01:08:49.956Z,79.99
2023-02-15T01:11:22.736Z,80.21
2023-02-15T01:13:54.690Z,80.09
2023-02-15T01:16:22.370Z,80.16
2023-02-15T01:18:49.489Z,79.98
2023-02-15T01:21:22.983Z,80.00
2023-02-15T01:23:50.376Z,80.22
2023-02-15T01:26:17.876Z,80.15
2023-02-15T01:28:45.626Z,80.07
2023-02-15T01:31:19.264Z,79.83
2023-02-15T01:33:47.836Z,80.18
2023-02-15T01:36:15.620Z,80.26
2023-02-15T01:38:42.892Z,80.36
2023-02-15T01:41:25.434Z,80.24
2023-02-15T01:44:00.669Z,80.25
2023-02-15T01:46:44.288Z,80.15
2023-02-15T01:49:17.371Z,80.40
2023-02-15T01:51:48.343Z,80.05
2023-02-15T01:54:34.854Z,80.06
2023-02-15T01:57:17.536Z,80.01
2023-02-15T01:59:52.793Z,80.00
2023-02-15T02:02:25.372Z,80.25
2023-02-15T02:04:58.878Z,80.27
2023-02-15T02:07:30.200Z,80.09
2023-02-15T02:10:02.095Z,80.13
2023-02-15T02:12:30.695Z,80.12
2023-02-15T02:14:58.441Z,80.30
2023-02-15T02:17:48.394Z,79.96
2023-02-15T02:20:30.985Z,80.43
2023-02-15T02:23:28.123Z,80.25
2023-02-15T02:27:07.951Z,80.16
2023-02-15T02:30:06.958Z,79.98
2023-02-15T02:33:04.732Z,80.13
2023-02-15T02:35:48.094Z,80.20
2023-02-15T02:38:52.001Z,80.05
2023-02-15T02:41:52.739Z,80.18
2023-02-15T02:44:30.003Z,80.10
2023-02-15T02:47:30.800Z,80.09
2023-02-15T02:50:13.990Z,80.11
2023-02-15T02:53:07.265Z,80.40
2023-02-15T02:55:54.676Z,80.29
2023-02-15T02:58:46.475Z,80.13
2023-02-15T03:01:34.239Z,80.26
2023-02-15T03:04:12.326Z,80.41
2023-02-15T03:06:57.190Z,80.14
2023-02-15T03:09:45.208Z,80.28
2023-02-15T03:12:19.113Z,80.51
2023-02-15T03:14:56.392Z,80.53
2023-02-15T03:17:27.313Z,80.38
2023-02-15T03:19:58.531Z,79.99
2023-02-15T03:22:48.867Z,80.27
2023-02-15T03:25:25.752Z,80.65
2023-02-15T03:28:00.084Z,80.54
2023-02-15T03:30:30.429Z,80.43
2023-02-15T03:33:00.755Z,80.24
2023-02-15T03:35:38.567Z,80.54
2023-02-15T03:38:10.004Z,80.67
2023-02-15T03:41:07.998Z,80.39
2023-02-15T03:43:46.863Z,80.56
2023-02-15T03:46:40.860Z,80.38
2023-02-15T03:49:23.722Z,80.50
2023-02-15T03:51:55.159Z,80.65
2023-02-15T03:54:44.721Z,80.37
2023-02-15T03:57:58.454Z,80.25
2023-02-15T04:00:44.692Z,80.57
2023-02-15T04:04:21.123Z,80.66
2023-02-15T04:06:48.375Z,80.63
2023-02-15T04:09:34.237Z,80.41
2023-02-15T04:12:01.176Z,80.58
2023-02-15T04:14:46.601Z,80.69
2023-02-15T04:17:13.508Z,80.54
2023-02-15T04:19:58.934Z,80.82
2023-02-15T04:22:44.108Z,80.57
2023-02-15T04:25:13.585Z,80.75
2023-02-15T04:27:44.248Z,80.86
2023-02-15T04:30:13.705Z,80.52
2023-02-15T04:32:40.980Z,80.79
2023-02-15T04:35:08.573Z,80.89
2023-02-15T04:37:35.921Z,80.77
2023-02-15T04:40:04.441Z,80.68
2023-02-15T04:42:31.505Z,80.66
2023-02-15T04:44:58.539Z,80.83
2023-02-15T04:47:26.026Z,80.61
2023-02-15T04:49:53.019Z,80.83
2023-02-15T04:52:19.966Z,80.83
2023-02-15T04:54:47.289Z,80.90
2023-02-15T04:57:14.654Z,81.40
2023-02-15T04:59:41.668Z,81.31
2023-02-15T05:02:08.651Z,80.90
2023-02-15T05:04:35.714Z,80.88
2023-02-15T05:07:02.684Z,81.05
2023-02-15T05:09:29.634Z,81.12
2023-02-15T05:11:56.554Z,80.89
2023-02-15T05:14:23.630Z,80.91
2023-02-15T05:16:50.702Z,80.92
2023-02-15T05:19:17.766Z,81.40
2023-02-15T05:21:44.652Z,81.25
2023-02-15T05:24:29.985Z,81.16
2023-02-15T05:27:15.262Z,81.61
2023-02-15T05:29:42.206Z,81.07
2023-02-15T05:32:09.269Z,81.24
2023-02-15T05:34:36.236Z,81.32
2023-02-15T05:37:03.240Z,81.57
2023-02-15T05:39:30.152Z,81.28
2023-02-15T05:42:02.468Z,80.91
2023-02-15T05:44:29.389Z,81.06
2023-02-15T05:46:56.364Z,80.95
2023-02-15T05:49:23.410Z,81.02
2023-02-15T05:51:50.343Z,81.36
2023-02-15T05:54:17.340Z,81.47
2023-02-15T05:56:44.299Z,81.44
2023-02-15T05:59:11.249Z,81.57
2023-02-15T06:01:38.244Z,81.29
2023-02-15T06:04:05.317Z,81.34
2023-02-15T06:07:27.534Z,81.77
2023-02-15T06:10:13.646Z,81.11
2023-02-15T06:12:40.815Z,81.28
2023-02-15T06:15:08.172Z,82.05
2023-02-15T06:17:35.086Z,81.48
2023-02-15T06:20:02.151Z,82.18
2023-02-15T06:22:29.061Z,81.91
2023-02-15T06:24:55.997Z,81.32
2023-02-15T06:27:22.909Z,81.29
2023-02-15T06:29:50.052Z,81.26
2023-02-15T06:32:16.968Z,81.27
2023-02-15T06:34:43.899Z,81.15
2023-02-15T06:37:10.783Z,81.37
2023-02-15T06:39:37.736Z,81.10
2023-02-15T06:42:04.709Z,81.41
2023-02-15T06:44:31.608Z,81.33
2023-02-15T06:46:58.551Z,81.41
2023-02-15T06:49:25.808Z,81.18
2023-02-15T06:51:52.800Z,81.45
2023-02-15T06:54:19.866Z,81.23
2023-02-15T06:56:46.835Z,81.39
2023-02-15T06:59:13.759Z,81.27
2023-02-15T07:01:40.736Z,81.39
2023-02-15T07:04:07.732Z,81.83
2023-02-15T07:06:35.020Z,81.73
2023-02-15T07:09:02.715Z,81.38
2023-02-15T07:11:48.408Z,81.44
2023-02-15T07:14:15.372Z,81.76
2023-02-15T07:16:42.271Z,81.42
2023-02-15T07:19:09.348Z,81.44
2023-02-15T07:21:36.987Z,81.31
2023-02-15T07:24:04.509Z,81.51
2023-02-15T07:26:33.380Z,81.49
2023-02-15T07:29:00.363Z,82.00
2023-02-15T07:31:27.342Z,81.44
2023-02-15T07:33:54.353Z,81.41
2023-02-15T07:36:21.274Z,81.56
2023-02-15T07:38:48.392Z,81.81
2023-02-15T07:41:16.589Z,81.84
2023-02-15T07:43:45.672Z,81.64
2023-02-15T07:46:16.134Z,81.63
2023-02-15T07:48:44.250Z,81.55
2023-02-15T07:51:12.690Z,81.81
2023-02-15T07:53:40.269Z,81.67
2023-02-15T07:56:11.857Z,81.80
2023-02-15T07:58:54.849Z,81.72
2023-02-15T08:01:27.705Z,81.59
2023-02-15T08:03:55.961Z,81.78
2023-02-15T08:06:25.977Z,81.66
2023-02-15T08:08:52.952Z,81.69
2023-02-15T08:11:26.702Z,81.93
2023-02-15T08:14:22.911Z,81.59
2023-02-15T08:16:56.550Z,81.83
2023-02-15T08:19:29.502Z,82.01
2023-02-15T08:21:59.456Z,82.10
2023-02-15T08:24:29.863Z,82.05
2023-02-15T08:26:57.486Z,81.99
2023-02-15T08:29:28.301Z,82.10
2023-02-15T08:32:03.095Z,82.23
2023-02-15T08:34:33.221Z,82.32
2023-02-15T08:37:00.301Z,82.03
2023-02-15T08:39:27.484Z,82.16
2023-02-15T08:41:54.406Z,82.62
2023-02-15T08:44:21.800Z,82.54
2023-02-15T08:46:50.079Z,82.96
2023-02-15T08:49:20.721Z,82.89
2023-02-15T08:51:49.349Z,83.07
2023-02-15T08:54:20.004Z,82.49
2023-02-15T08:56:47.631Z,82.55
2023-02-15T08:59:21.443Z,82.92
2023-02-15T09:01:51.603Z,83.66
2023-02-15T09:04:18.787Z,83.45
2023-02-15T09:06:49.069Z,83.72
2023-02-15T09:09:17.513Z,83.49
2023-02-15T09:11:47.876Z,83.19
2023-02-15T09:14:22.379Z,83.54
2023-02-15T09:16:51.746Z,83.15
2023-02-15T09:19:21.508Z,82.96
2023-02-15T09:21:49.352Z,83.04
2023-02-15T09:24:18.054Z,83.70
2023-02-15T09:26:48.328Z,83.51
2023-02-15T09:29:17.264Z,84.53
2023-02-15T09:31:47.817Z,84.29
2023-02-15T09:34:17.931Z,83.96
2023-02-15T09:36:45.570Z,83.78
2023-02-15T09:39:19.355Z,84.07
2023-02-15T09:42:07.776Z,83.93
2023-02-15T09:45:27.830Z,83.84
2023-02-15T09:48:13.248Z,84.07
2023-02-15T09:51:01.791Z,85.26
2023-02-15T09:54:09.203Z,84.38
2023-02-15T09:56:48.910Z,85.03
2023-02-15T09:59:57.826Z,84.47
2023-02-15T10:03:14.113Z,84.01
2023-02-15T10:05:57.758Z,84.52
2023-02-15T10:08:56.540Z,84.81
2023-02-15T10:11:44.259Z,84.42
2023-02-15T10:14:40.756Z,84.14
2023-02-15T10:17:26.764Z,84.31
2023-02-15T10:20:05.634Z,84.52
2023-02-15T10:23:08.269Z,84.60
2023-02-15T10:26:17.465Z,84.28
2023-02-15T10:28:56.222Z,84.56
2023-02-15T10:31:44.280Z,84.71
2023-02-15T10:34:21.075Z,84.78
2023-02-15T10:37:00.877Z,84.88
2023-02-15T10:40:06.138Z,84.64
2023-02-15T10:42:46.521Z,84.58
2023-02-15T10:45:49.073Z,84.59
2023-02-15T10:48:52.422Z,84.74
2023-02-15T10:52:00.128Z,84.78
2023-02-15T10:54:59.064Z,84.73
2023-02-15T10:57:54.296Z,84.59
2023-02-15T11:01:04.906Z,84.76
2023-02-15T11:04:02.310Z,84.75
2023-02-15T11:06:29.896Z,84.96
2023-02-15T11:09:13.936Z,85.09
2023-02-15T11:11:45.861Z,84.77
2023-02-15T11:14:47.306Z,84.97
2023-02-15T11:17:18.767Z,85.31
2023-02-15T11:20:03.630Z,85.32
2023-02-15T11:22:34.386Z,85.64
2023-02-15T11:25:03.233Z,85.55
2023-02-15T11:27:35.865Z,85.39
2023-02-15T11:30:14.553Z,85.49
2023-02-15T11:32:45.775Z,85.22
2023-02-15T11:35:12.775Z,85.36
2023-02-15T11:37:59.978Z,85.71
2023-02-15T11:40:52.485Z,85.52
2023-02-15T11:43:37.934Z,85.48
2023-02-15T11:46:05.707Z,85.60
2023-02-15T11:48:33.684Z,86.14
2023-02-15T11:51:03.350Z,86.21
2023-02-15T11:53:36.682Z,85.89
2023-02-15T11:56:05.145Z,85.90
2023-02-15T11:58:41.471Z,86.04
2023-02-15T12:01:43.497Z,86.28
2023-02-15T12:04:35.581Z,86.45
2023-02-15T12:07:26.587Z,86.03
2023-02-15T12:10:34.756Z,86.33
2023-02-15T12:13:19.195Z,86.45
2023-02-15T12:15:57.170Z,86.17
2023-02-15T12:18:45.265Z,86.58
2023-02-15T12:21:40.653Z,86.39
2023-02-15T12:24:25.991Z,86.51
2023-02-15T12:27:14.666Z,86.86
2023-02-15T12:29:47.358Z,86.55
2023-02-15T12:32:36.888Z,86.37
2023-02-15T12:35:28.558Z,86.60
2023-02-15T12:38:10.459Z,86.87
2023-02-15T12:40:39.340Z,87.14
2023-02-15T12:43:26.126Z,87.63
2023-02-15T12:45:53.048Z,87.92
2023-02-15T12:48:21.585Z,88.00
2023-02-15T12:50:58.308Z,88.89
2023-02-15T12:53:34.971Z,89.23
2023-02-15T12:56:08.249Z,89.46
2023-02-15T12:58:37.997Z,89.89
2023-02-15T13:01:18.644Z,90.15
2023-02-15T13:04:15.630Z,90.24
2023-02-15T13:06:52.606Z,90.67
2023-02-15T13:09:26.908Z,90.30
2023-02-15T13:11:54.648Z,90.20
2023-02-15T13:14:33.175Z,90.59
2023-02-15T13:17:03.864Z,90.66
2023-02-15T13:19:43.564Z,90.57
2023-02-15T13:22:28.186Z,90.32
2023-02-15T13:24:59.232Z,90.23
2023-02-15T13:27:35.515Z,91.25
2023-02-15T13:30:22.126Z,90.01
2023-02-15T13:32:53.625Z,89.74
2023-02-15T13:35:21.668Z,89.75
2023-02-15T13:38:16.783Z,90.84
2023-02-15T13:41:01.219Z,90.89
2023-02-15T13:43:49.038Z,91.59
2023-02-15T13:46:39.902Z,91.25
2023-02-15T13:49:53.432Z,92.07
2023-02-15T13:52:26.429Z,91.76
2023-02-15T13:55:10.813Z,92.35
2023-02-15T13:57:52.336Z,92.23
2023-02-15T14:00:49.860Z,92.60
2023-02-15T14:03:54.769Z,92.36
2023-02-15T14:06:48.893Z,92.15
2023-02-15T14:09:49.473Z,92.31
2023-02-15T14:12:37.284Z,92.67
2023-02-15T14:15:50.095Z,92.71
2023-02-15T14:18:48.572Z,92.17
2023-02-15T14:21:31.448Z,91.99
2023-02-15T14:24:25.157Z,92.22
2023-02-15T14:27:37.278Z,92.43
2023-02-15T14:30:26.386Z,92.12
2023-02-15T14:33:01.310Z,91.75
2023-02-15T14:35:31.131Z,91.37
2023-02-15T14:38:19.091Z,92.26
2023-02-15T14:41:14.099Z,92.31
2023-02-15T14:44:21.256Z,92.07
2023-02-15T14:47:18.497Z,91.83
2023-02-15T14:49:45.423Z,90.87
2023-02-15T14:52:13.231Z,91.50
2023-02-15T14:55:00.404Z,91.18
2023-02-15T14:57:29.247Z,90.85
2023-02-15T15:00:01.475Z,90.89
2023-02-15T15:02:49.894Z,91.51
2023-02-15T15:05:35.457Z,91.15
2023-02-15T15:08:05.736Z,89.98
2023-02-15T15:10:47.497Z,90.54
2023-02-15T15:13:32.726Z,90.16
2023-02-15T15:16:36.095Z,90.08
2023-02-15T15:19:10.076Z,88.79
2023-02-15T15:21:57.192Z,88.33
2023-02-15T15:24:39.223Z,88.31
2023-02-15T15:27:51.950Z,88.34
2023-02-15T15:30:18.860Z,87.10
2023-02-15T15:32:55.042Z,87.69
2023-02-15T15:35:38.328Z,87.89
2023-02-15T15:38:39.275Z,87.44
2023-02-15T15:41:38.933Z,87.39
2023-02-15T15:44:35.432Z,87.26
2023-02-15T15:47:24.956Z,87.27
2023-02-15T15:49:58.351Z,87.32
2023-02-15T15:52:27.193Z,87.32
2023-02-15T15:55:03.600Z,87.18
2023-02-15T15:57:36.036Z,86.89
2023-02-15T16:00:06.697Z,86.71
2023-02-15T16:02:52.328Z,86.78
2023-02-15T16:05:19.934Z,86.01
2023-02-15T16:07:47.447Z,85.94
2023-02-15T16:10:30.781Z,86.28
2023-02-15T16:12:57.735Z,86.05
2023-02-15T16:15:34.503Z,85.88
2023-02-15T16:18:02.504Z,86.02
2023-02-15T16:20:36.860Z,85.87
2023-02-15T16:23:44.769Z,86.29
2023-02-15T16:26:46.482Z,85.73
2023-02-15T16:29:19.338Z,85.54
2023-02-15T16:32:07.034Z,85.37
2023-02-15T16:34:34.275Z,85.16
2023-02-15T16:37:19.474Z,85.36
2023-02-15T16:39:49.040Z,84.98
2023-02-15T16:42:17.976Z,84.32
2023-02-15T16:44:49.252Z,84.53
2023-02-15T16:47:30.543Z,84.37
2023-02-15T16:50:03.048Z,84.17
2023-02-15T16:52:30.666Z,84.27
2023-02-15T16:55:05.346Z,84.21
2023-02-15T16:57:39.016Z,83.85
2023-02-15T17:00:17.828Z,83.73
2023-02-15T17:03:21.508Z,83.47
2023-02-15T17:05:58.671Z,83.90
2023-02-15T17:08:34.149Z,83.46
2023-02-15T17:11:20.946Z,83.52
2023-02-15T17:14:15.337Z,83.80
2023-02-15T17:16:50.295Z,83.70
2023-02-15T17:19:31.400Z,83.28
2023-02-15T17:22:07.615Z,83.00
2023-02-15T17:24:44.972Z,83.09
2023-02-15T17:27:27.352Z,82.60
2023-02-15T17:30:13.672Z,82.61
2023-02-15T17:32:55.955Z,82.34
2023-02-15T17:35:29.177Z,82.58
2023-02-15T17:38:28.564Z,82.02
2023-02-15T17:40:55.469Z,81.96
2023-02-15T17:43:22.396Z,82.11
2023-02-15T17:45:51.178Z,82.09
2023-02-15T17:48:36.872Z,81.99
2023-02-15T17:51:07.479Z,81.98
2023-02-15T17:53:34.829Z,81.97
2023-02-15T17:56:10.262Z,82.04
2023-02-15T17:58:38.172Z,82.01
2023-02-15T18:01:36.941Z,81.80
2023-02-15T18:04:23.957Z,82.08
2023-02-15T18:07:10.528Z,82.11
2023-02-15T18:09:55.739Z,82.06
2023-02-15T18:12:24.820Z,82.16
2023-02-15T18:14:54.339Z,82.22
2023-02-15T18:17:32.732Z,82.10
2023-02-15T18:20:05.424Z,81.98
2023-02-15T18:22:33.583Z,82.00
2023-02-15T18:25:00.524Z,82.02
2023-02-15T18:27:27.534Z,81.75
2023-02-15T18:29:54.535Z,81.60
2023-02-15T18:32:34.728Z,81.60
2023-02-15T18:35:03.271Z,81.65
2023-02-15T18:37:33.284Z,81.69
2023-02-15T18:40:03.815Z,81.75
2023-02-15T18:42:39.350Z,81.71
2023-02-15T18:45:19.833Z,81.50
2023-02-15T18:47:47.880Z,81.74
2023-02-15T18:50:19.460Z,81.69
2023-02-15T18:52:50.476Z,81.40
2023-02-15T18:55:22.778Z,81.59
2023-02-15T18:57:52.353Z,81.44
2023-02-15T19:00:34.641Z,81.36
2023-02-15T19:03:02.706Z,81.53
2023-02-15T19:05:31.813Z,81.51
2023-02-15T19:08:01.895Z,81.47
2023-02-15T19:10:31.606Z,81.34
2023-02-15T19:12:58.660Z,81.48
2023-02-15T19:15:30.211Z,81.45
2023-02-15T19:17:57.197Z,81.56
2023-02-15T19:20:30.203Z,81.30
2023-02-15T19:23:00.226Z,81.08
2023-02-15T19:25:34.254Z,81.26
2023-02-15T19:28:19.086Z,81.06
2023-02-15T19:30:46.378Z,81.03
2023-02-15T19:33:20.109Z,81.03
2023-02-15T19:35:52.314Z,81.13
2023-02-15T19:38:26.441Z,81.21
2023-02-15T19:40:56.666Z,81.34
2023-02-15T19:43:26.230Z,81.06
2023-02-15T19:45:53.638Z,81.24
2023-02-15T19:48:20.605Z,81.50
2023-02-15T19:50:49.423Z,81.23
2023-02-15T19:53:27.221Z,80.94
2023-02-15T19:55:55.375Z,81.19
2023-02-15T19:58:23.945Z,81.15
2023-02-15T20:00:51.778Z,81.19
2023-02-15T20:03:18.752Z,81.16
2023-02-15T20:05:46.999Z,81.10
2023-02-15T20:08:19.791Z,81.08
2023-02-15T20:10:46.805Z,81.23
2023-02-15T20:13:16.661Z,81.02
2023-02-15T20:15:44.624Z,80.96
2023-02-15T20:18:12.530Z,80.90
2023-02-15T20:20:48.747Z,80.92
2023-02-15T20:23:36.255Z,80.83
2023-02-15T20:26:18.120Z,81.01
2023-02-15T20:28:46.266Z,81.19
2023-02-15T20:31:19.102Z,81.09
2023-02-15T20:33:46.275Z,80.94
2023-02-15T20:36:17.555Z,81.06
2023-02-15T20:38:45.500Z,81.01
2023-02-15T20:41:35.013Z,80.98
2023-02-15T20:44:26.153Z,80.80
2023-02-15T20:46:56.525Z,80.88
2023-02-15T20:49:27.166Z,81.09
2023-02-15T20:51:56.025Z,81.26
2023-02-15T20:54:28.618Z,81.04
2023-02-15T20:56:55.637Z,80.95
2023-02-15T20:59:28.930Z,80.81
2023-02-15T21:02:13.226Z,80.73
2023-02-15T21:04:40.382Z,80.97
2023-02-15T21:07:07.369Z,80.78
2023-02-15T21:09:34.373Z,80.77
2023-02-15T21:12:02.640Z,80.85
2023-02-15T21:14:29.739Z,80.55
2023-02-15T21:16:56.750Z,80.86
2023-02-15T21:19:24.673Z,80.66
2023-02-15T21:21:53.350Z,80.90
2023-02-15T21:24:28.142Z,80.79
2023-02-15T21:26:58.543Z,80.68
2023-02-15T21:29:30.078Z,80.98
2023-02-15T21:32:01.176Z,80.59
2023-02-15T21:34:28.160Z,80.55
2023-02-15T21:36:55.276Z,80.61
2023-02-15T21:39:25.886Z,80.54
2023-02-15T21:42:24.932Z,80.76
2023-02-15T21:45:10.347Z,80.76
2023-02-15T21:47:52.095Z,80.71
2023-02-15T21:50:43.193Z,80.56
2023-02-15T21:53:19.789Z,80.45
2023-02-15T21:55:46.748Z,80.51
2023-02-15T21:58:24.306Z,80.61
2023-02-15T22:00:54.753Z,80.65
2023-02-15T22:03:30.110Z,80.69
2023-02-15T22:05:57.177Z,80.75
2023-02-15T22:08:24.247Z,80.52
2023-02-15T22:10:53.249Z,80.55
2023-02-15T22:13:33.356Z,80.52
2023-02-15T22:16:00.355Z,80.60
2023-02-15T22:18:33.529Z,80.51
2023-02-15T22:21:02.481Z,80.69
2023-02-15T22:23:29.693Z,80.46
2023-02-15T22:26:02.837Z,80.50
2023-02-15T22:28:38.041Z,80.68
2023-02-15T22:31:14.663Z,80.52
2023-02-15T22:33:42.380Z,80.62
2023-02-15T22:36:28.702Z,80.68
2023-02-15T22:38:56.809Z,80.69
2023-02-15T22:41:28.793Z,80.73
2023-02-15T22:43:57.018Z,80.79
2023-02-15T22:46:25.781Z,80.83
2023-02-15T22:48:52.689Z,80.60
2023-02-15T22:51:23.362Z,80.72
2023-02-15T22:53:53.976Z,80.41
2023-02-15T22:56:32.131Z,80.62
2023-02-15T22:59:05.558Z,80.55
2023-02-15T23:01:36.631Z,80.72
2023-02-15T23:04:04.340Z,80.86
2023-02-15T23:06:34.180Z,80.90
2023-02-15T23:09:01.237Z,80.89
2023-02-15T23:11:28.606Z,81.08
2023-02-15T23:13:56.009Z,80.94
2023-02-15T23:16:23.007Z,81.14
2023-02-15T23:18:50.053Z,81.42
2023-02-15T23:21:27.905Z,82.73
2023-02-15T23:24:10.513Z,82.25
2023-02-15T23:26:37.404Z,81.82
2023-02-15T23:29:13.377Z,82.44
2023-02-15T23:31:45.052Z,82.49
2023-02-15T23:34:25.538Z,81.53
2023-02-15T23:36:52.601Z,81.65
2023-02-15T23:39:44.752Z,81.86
2023-02-15T23:42:19.786Z,81.90
2023-02-15T23:44:47.931Z,81.61
2023-02-15T23:47:46.818Z,81.58
2023-02-15T23:50:27.043Z,81.80
2023-02-15T23:52:55.623Z,81.56
2023-02-15T23:55:25.305Z,81.53
2023-02-15T23:57:53.237Z,81.38
